Time;durP1;ratioP1;P1;durP2;ratioP2;P2;SDS_P1;SDS_P2;PMS_P1;PMS_P2;Temp;Humidity;BMP_temperature;BMP_pressure;BME280_temperature;BME280_humidity;BME280_pressure;Samples;Min_cycle;Max_cycle;Signal;HPM_P1;HPM_P2
2021/10/14 00:01:11;;;;;;;4.43;4.03;;;10.20;99.90;;;;;;5102599;28;20228;-50
2021/10/14 00:03:41;;;;;;;8.00;4.77;;;10.20;99.90;;;;;;5102821;28;20327;-50
2021/10/14 00:06:08;;;;;;;7.83;5.43;;;10.20;99.90;;;;;;5101295;28;20201;-51
2021/10/14 00:08:34;;;;;;;5.17;4.50;;;10.20;99.90;;;;;;5092676;27;20194;-45
2021/10/14 00:11:01;;;;;;;4.93;4.43;;;10.30;99.90;;;;;;5106127;27;20677;-47
2021/10/14 00:13:28;;;;;;;4.90;4.50;;;10.30;99.90;;;;;;5090470;28;20217;-44
2021/10/14 00:15:54;;;;;;;5.00;4.50;;;10.30;99.90;;;;;;5105065;28;20242;-45
2021/10/14 00:18:21;;;;;;;4.87;4.37;;;10.30;99.90;;;;;;5101426;28;20201;-44
2021/10/14 00:20:49;;;;;;;7.53;5.40;;;10.30;99.90;;;;;;5107331;27;20217;-53
2021/10/14 00:23:16;;;;;;;7.40;5.77;;;10.40;99.90;;;;;;5091293;27;20224;-48
2021/10/14 00:25:42;;;;;;;8.53;5.47;;;10.40;99.90;;;;;;5103913;27;20923;-49
2021/10/14 00:28:09;;;;;;;6.50;5.97;;;10.40;99.90;;;;;;5093671;28;20204;-50
2021/10/14 00:30:35;;;;;;;10.63;6.87;;;10.40;99.90;;;;;;5101547;28;20197;-47
2021/10/14 00:33:02;;;;;;;12.03;6.47;;;10.40;99.90;;;;;;5105270;28;20201;-53
2021/10/14 00:35:29;;;;;;;7.27;6.67;;;10.40;99.90;;;;;;5100728;28;20775;-47
2021/10/14 00:37:57;;;;;;;11.63;7.17;;;10.40;99.90;;;;;;5105897;28;20205;-50
2021/10/14 00:40:24;;;;;;;7.53;6.53;;;10.40;99.90;;;;;;5088459;27;20728;-49
2021/10/14 00:42:52;;;;;;;8.27;7.30;;;10.50;99.90;;;;;;5099521;28;20708;-49
2021/10/14 00:45:19;;;;;;;11.20;6.90;;;10.50;99.90;;;;;;5101640;28;20193;-48
2021/10/14 00:47:45;;;;;;;11.20;8.30;;;10.50;99.90;;;;;;5103757;28;20275;-49
2021/10/14 00:50:12;;;;;;;10.00;7.57;;;10.50;99.90;;;;;;5102438;28;20193;-54
2021/10/14 00:52:42;;;;;;;9.63;7.50;;;10.60;99.90;;;;;;5102012;28;20201;-45
2021/10/14 00:55:13;;;;;;;11.90;8.27;;;10.50;99.90;;;;;;5090226;28;20247;-50
2021/10/14 00:57:40;;;;;;;9.67;7.33;;;10.60;99.90;;;;;;5103622;28;20189;-50
2021/10/14 01:00:08;;;;;;;8.90;7.73;;;10.60;99.90;;;;;;5095849;28;20210;-54
2021/10/14 01:02:35;;;;;;;15.07;8.60;;;10.60;99.90;;;;;;5100879;28;20224;-45
2021/10/14 01:05:01;;;;;;;10.37;7.83;;;10.60;99.90;;;;;;5104299;28;20232;-49
2021/10/14 01:07:29;;;;;;;11.33;8.37;;;10.70;99.90;;;;;;5099783;28;20193;-47
2021/10/14 01:09:56;;;;;;;11.13;8.93;;;10.60;99.90;;;;;;5082643;27;21063;-49
2021/10/14 01:12:25;;;;;;;12.60;9.10;;;10.70;99.90;;;;;;5099667;28;20185;-47
2021/10/14 01:14:52;;;;;;;12.87;9.30;;;10.70;99.90;;;;;;5097679;28;20217;-52
2021/10/14 01:17:18;;;;;;;13.10;8.83;;;10.70;99.90;;;;;;5099677;28;20197;-48
2021/10/14 01:19:46;;;;;;;13.03;9.33;;;10.70;99.90;;;;;;5103892;28;20197;-46
2021/10/14 01:22:13;;;;;;;12.33;9.57;;;10.80;99.90;;;;;;5099512;28;20213;-52
2021/10/14 01:24:40;;;;;;;13.07;9.53;;;10.80;99.90;;;;;;5103773;28;20278;-48
2021/10/14 01:27:09;;;;;;;11.87;8.70;;;10.80;99.90;;;;;;5088612;27;20269;-50
2021/10/14 01:29:36;;;;;;;10.17;7.63;;;10.80;99.90;;;;;;5103177;28;20194;-50
2021/10/14 01:32:04;;;;;;;8.70;7.50;;;10.80;99.90;;;;;;5092825;28;20217;-48
2021/10/14 01:34:31;;;;;;;9.90;7.50;;;10.90;99.90;;;;;;5102625;28;20201;-50
2021/10/14 01:36:59;;;;;;;9.00;7.80;;;10.90;99.90;;;;;;5103151;28;20666;-54
2021/10/14 01:39:26;;;;;;;8.77;7.70;;;10.90;99.90;;;;;;5105319;28;20204;-46
2021/10/14 01:41:52;;;;;;;8.50;7.30;;;10.90;99.90;;;;;;5095128;27;20217;-49
2021/10/14 01:44:19;;;;;;;10.93;7.57;;;10.90;99.90;;;;;;5104723;28;20295;-52
2021/10/14 01:46:45;;;;;;;8.77;7.83;;;10.90;99.90;;;;;;5100696;27;20201;-54
2021/10/14 01:49:12;;;;;;;9.50;8.13;;;11.00;99.90;;;;;;5105183;28;20201;-52
2021/10/14 01:51:39;;;;;;;10.73;8.30;;;11.00;99.90;;;;;;5109799;27;20205;-51
2021/10/14 01:54:07;;;;;;;10.13;8.37;;;11.00;99.90;;;;;;5105658;27;20721;-53
2021/10/14 01:56:33;;;;;;;9.23;8.27;;;11.10;99.90;;;;;;5106370;28;20205;-48
2021/10/14 01:59:00;;;;;;;10.83;8.47;;;11.00;99.90;;;;;;5097603;27;20614;-53
2021/10/14 02:01:27;;;;;;;11.50;8.63;;;11.10;99.90;;;;;;5093531;28;20229;-53
2021/10/14 02:03:53;;;;;;;13.80;8.77;;;11.10;99.90;;;;;;5104610;28;20594;-54
2021/10/14 02:06:20;;;;;;;11.33;8.87;;;11.10;99.90;;;;;;5104511;27;20189;-53
2021/10/14 02:08:46;;;;;;;11.13;9.17;;;11.10;99.90;;;;;;5108322;28;20687;-54
2021/10/14 02:11:14;;;;;;;9.90;7.90;;;11.10;99.90;;;;;;5104279;28;20198;-50
2021/10/14 02:13:41;;;;;;;14.87;9.40;;;11.20;99.90;;;;;;5094102;27;20236;-46
2021/10/14 02:16:07;;;;;;;9.50;7.67;;;11.20;99.90;;;;;;5101580;27;20198;-52
2021/10/14 02:18:34;;;;;;;11.43;8.77;;;11.20;99.90;;;;;;5100817;28;20213;-47
2021/10/14 02:21:01;;;;;;;12.93;9.40;;;11.20;99.90;;;;;;5105520;28;20197;-51
2021/10/14 02:23:28;;;;;;;9.37;7.90;;;11.20;99.90;;;;;;5104761;28;20213;-49
2021/10/14 02:25:54;;;;;;;9.40;8.10;;;11.20;99.90;;;;;;5107176;28;20212;-51
2021/10/14 02:28:22;;;;;;;9.27;8.10;;;11.20;99.90;;;;;;5090951;27;20232;-51
2021/10/14 02:30:49;;;;;;;10.57;8.67;;;11.20;99.90;;;;;;5102114;28;20208;-50
2021/10/14 02:33:16;;;;;;;12.17;8.43;;;11.30;99.90;;;;;;5096548;28;20797;-49
2021/10/14 02:35:43;;;;;;;12.03;8.07;;;11.30;99.90;;;;;;5106836;28;20209;-49
2021/10/14 02:38:09;;;;;;;10.63;8.33;;;11.30;99.90;;;;;;5104277;27;20292;-51
2021/10/14 02:40:36;;;;;;;9.03;7.50;;;11.30;99.90;;;;;;5106022;28;20719;-45
2021/10/14 02:43:04;;;;;;;13.63;8.10;;;11.30;99.90;;;;;;5098743;27;20221;-46
2021/10/14 02:45:32;;;;;;;14.93;8.23;;;11.30;99.90;;;;;;5099818;27;20959;-51
2021/10/14 02:47:58;;;;;;;11.07;8.70;;;11.30;99.90;;;;;;5101869;28;20248;-53
2021/10/14 02:50:25;;;;;;;11.17;7.80;;;11.40;99.90;;;;;;5103749;27;20216;-49
2021/10/14 02:52:52;;;;;;;11.60;8.83;;;11.40;99.90;;;;;;5105246;28;20201;-51
2021/10/14 02:55:18;;;;;;;10.00;8.20;;;11.40;99.90;;;;;;5102745;28;20197;-53
2021/10/14 02:57:45;;;;;;;11.40;8.37;;;11.40;99.90;;;;;;5107004;28;20197;-51
2021/10/14 03:00:13;;;;;;;10.17;8.67;;;11.40;99.90;;;;;;5089679;27;20205;-49
2021/10/14 03:02:41;;;;;;;14.43;10.17;;;11.40;99.90;;;;;;5098648;28;20710;-50
2021/10/14 03:05:08;;;;;;;13.00;9.40;;;11.50;99.90;;;;;;5103901;28;20228;-52
2021/10/14 03:07:35;;;;;;;15.00;10.20;;;11.40;99.90;;;;;;5105253;28;20208;-50
2021/10/14 03:10:01;;;;;;;15.70;10.40;;;11.50;99.90;;;;;;5101398;27;20197;-49
2021/10/14 03:12:28;;;;;;;17.40;11.13;;;11.50;99.90;;;;;;5097560;28;20189;-50
2021/10/14 03:14:54;;;;;;;15.77;10.63;;;11.50;99.90;;;;;;5104965;28;20221;-50
2021/10/14 03:17:21;;;;;;;15.83;10.60;;;11.50;99.90;;;;;;5085510;27;20206;-52
2021/10/14 03:19:49;;;;;;;17.87;10.80;;;11.50;99.90;;;;;;5105406;28;20658;-50
2021/10/14 03:22:15;;;;;;;19.73;12.70;;;11.50;99.90;;;;;;5103141;28;20240;-53
2021/10/14 03:24:42;;;;;;;18.23;12.10;;;11.50;99.90;;;;;;5106807;28;20608;-50
2021/10/14 03:27:09;;;;;;;21.67;12.47;;;11.60;99.90;;;;;;5104231;28;20201;-50
2021/10/14 03:29:35;;;;;;;19.50;12.03;;;11.60;99.90;;;;;;5105409;27;20247;-50
2021/10/14 03:32:02;;;;;;;14.27;10.33;;;11.60;99.90;;;;;;5091204;27;20204;-52
2021/10/14 03:34:29;;;;;;;14.73;9.97;;;11.60;99.90;;;;;;5096841;28;20217;-48
2021/10/14 03:36:57;;;;;;;16.17;9.70;;;11.60;99.90;;;;;;5105555;28;20213;-53
2021/10/14 03:39:23;;;;;;;14.93;10.57;;;11.60;99.90;;;;;;5096171;28;20895;-48
2021/10/14 03:41:50;;;;;;;15.70;9.40;;;11.70;99.90;;;;;;5105283;28;20205;-48
2021/10/14 03:44:17;;;;;;;13.83;9.57;;;11.70;99.90;;;;;;5095058;28;20224;-49
2021/10/14 03:46:44;;;;;;;13.13;9.10;;;11.70;99.90;;;;;;5090427;27;20217;-51
2021/10/14 03:49:11;;;;;;;14.07;9.60;;;11.70;99.90;;;;;;5090836;28;20681;-49
2021/10/14 03:51:37;;;;;;;10.90;7.47;;;11.70;99.90;;;;;;5104570;28;20197;-45
2021/10/14 03:54:05;;;;;;;12.07;7.57;;;11.70;99.90;;;;;;5103718;28;20228;-50
2021/10/14 03:56:32;;;;;;;10.10;7.57;;;11.70;99.90;;;;;;5103689;28;20196;-46
2021/10/14 03:58:58;;;;;;;6.10;5.27;;;11.70;99.90;;;;;;5104714;28;20205;-50
2021/10/14 04:01:25;;;;;;;8.37;6.53;;;11.70;99.90;;;;;;5097057;28;20226;-47
2021/10/14 04:03:52;;;;;;;7.53;4.80;;;11.80;99.90;;;;;;5092198;27;20224;-47
2021/10/14 04:06:18;;;;;;;6.83;5.60;;;11.80;99.90;;;;;;5086994;28;20201;-47
2021/10/14 04:08:45;;;;;;;6.43;5.27;;;11.80;99.90;;;;;;5105952;28;20197;-53
2021/10/14 04:11:13;;;;;;;6.03;4.50;;;11.80;99.90;;;;;;5102905;28;20205;-49
2021/10/14 04:13:39;;;;;;;8.63;5.27;;;11.80;99.90;;;;;;5105525;28;20205;-49
2021/10/14 04:16:06;;;;;;;6.27;5.07;;;11.80;99.90;;;;;;5103567;28;20209;-50
2021/10/14 04:18:33;;;;;;;5.73;4.83;;;11.90;99.90;;;;;;5090830;27;20200;-50
2021/10/14 04:20:59;;;;;;;8.37;5.17;;;11.90;99.90;;;;;;5097938;28;20218;-52
2021/10/14 04:23:26;;;;;;;6.77;5.30;;;11.90;99.90;;;;;;5102060;28;20520;-48
2021/10/14 04:25:53;;;;;;;8.67;6.30;;;11.90;99.90;;;;;;5104858;28;20197;-48
2021/10/14 04:28:21;;;;;;;6.77;5.37;;;11.90;99.90;;;;;;5100909;28;20189;-48
2021/10/14 04:30:48;;;;;;;8.57;6.37;;;11.90;99.90;;;;;;5103824;28;20197;-48
2021/10/14 04:33:15;;;;;;;9.40;6.70;;;11.90;99.90;;;;;;5089299;27;20213;-46
2021/10/14 04:35:42;;;;;;;7.23;5.77;;;12.00;99.90;;;;;;5104835;28;20682;-45
2021/10/14 04:38:09;;;;;;;6.47;5.40;;;12.00;99.90;;;;;;5094968;28;20208;-50
2021/10/14 04:40:35;;;;;;;7.13;5.70;;;12.00;99.90;;;;;;5105051;28;20205;-48
2021/10/14 04:43:02;;;;;;;7.90;5.93;;;12.00;99.90;;;;;;5103856;28;20224;-50
2021/10/14 04:45:30;;;;;;;6.40;4.97;;;12.00;99.90;;;;;;5102567;28;20974;-47
2021/10/14 04:47:56;;;;;;;7.17;4.57;;;12.00;99.90;;;;;;5103966;28;20747;-52
2021/10/14 04:50:23;;;;;;;5.60;4.90;;;12.10;99.90;;;;;;5077256;27;20225;-55
2021/10/14 04:52:49;;;;;;;5.73;4.43;;;12.10;99.90;;;;;;5092294;28;20200;-50
2021/10/14 04:55:16;;;;;;;5.13;4.03;;;12.10;99.90;;;;;;5107723;27;20204;-48
2021/10/14 04:57:42;;;;;;;4.13;3.57;;;12.10;99.90;;;;;;5091930;27;20206;-51
2021/10/14 05:00:10;;;;;;;3.13;2.83;;;12.10;99.90;;;;;;5086329;28;20198;-45
2021/10/14 05:02:38;;;;;;;4.23;3.03;;;12.10;99.90;;;;;;5093894;28;20217;-50
2021/10/14 05:05:06;;;;;;;3.37;2.97;;;12.20;99.90;;;;;;5085336;27;20221;-45
2021/10/14 05:07:32;;;;;;;2.90;2.50;;;12.10;99.90;;;;;;5104149;27;20204;-49
2021/10/14 05:09:59;;;;;;;2.73;2.50;;;12.20;99.90;;;;;;5089864;28;20220;-49
2021/10/14 05:12:25;;;;;;;2.60;2.40;;;12.20;99.90;;;;;;5095861;28;20202;-52
2021/10/14 05:14:52;;;;;;;2.97;2.50;;;12.20;99.90;;;;;;5090025;28;20224;-46
2021/10/14 05:17:19;;;;;;;2.27;2.07;;;12.20;99.90;;;;;;5096311;27;20209;-49
2021/10/14 05:19:46;;;;;;;2.07;1.87;;;12.20;99.90;;;;;;5100807;28;20197;-47
2021/10/14 05:22:13;;;;;;;2.37;2.00;;;12.20;99.90;;;;;;5087557;27;20205;-46
2021/10/14 05:24:40;;;;;;;2.53;2.27;;;12.20;99.90;;;;;;5093198;28;20716;-52
2021/10/14 05:27:06;;;;;;;2.40;2.20;;;12.20;99.90;;;;;;5092481;28;20202;-47
2021/10/14 05:29:33;;;;;;;2.77;2.43;;;12.30;99.90;;;;;;5096199;28;20197;-52
2021/10/14 05:31:59;;;;;;;2.43;2.20;;;12.20;99.90;;;;;;5095297;28;20294;-54
2021/10/14 05:34:26;;;;;;;2.43;2.17;;;12.30;99.90;;;;;;5102369;28;20217;-49
2021/10/14 05:36:54;;;;;;;2.57;2.20;;;12.30;99.90;;;;;;5084624;28;20208;-49
2021/10/14 05:39:20;;;;;;;3.30;2.73;;;12.30;99.90;;;;;;5094442;28;20689;-49
2021/10/14 05:41:47;;;;;;;2.37;2.17;;;12.30;99.90;;;;;;5099872;28;20197;-48
2021/10/14 05:44:14;;;;;;;2.60;2.20;;;12.30;99.90;;;;;;5092200;28;20228;-49
2021/10/14 05:46:40;;;;;;;3.03;2.53;;;12.40;99.90;;;;;;5102471;28;20209;-50
2021/10/14 05:49:07;;;;;;;2.70;2.20;;;12.40;99.90;;;;;;5100122;28;20205;-53
2021/10/14 05:51:34;;;;;;;3.20;1.90;;;12.40;99.90;;;;;;5106826;28;20212;-46
2021/10/14 05:54:02;;;;;;;2.10;1.90;;;12.40;99.90;;;;;;5091975;28;20213;-52
2021/10/14 05:56:29;;;;;;;2.27;2.07;;;12.40;99.90;;;;;;5101857;28;20205;-45
2021/10/14 05:58:55;;;;;;;3.37;2.20;;;12.40;99.90;;;;;;5087717;28;20208;-49
2021/10/14 06:01:22;;;;;;;2.20;2.00;;;12.40;99.90;;;;;;5098175;28;20205;-45
2021/10/14 06:03:49;;;;;;;4.93;2.83;;;12.40;99.90;;;;;;5087574;28;20232;-48
2021/10/14 06:06:16;;;;;;;4.47;3.20;;;12.50;99.90;;;;;;5099255;28;20204;-52
2021/10/14 06:08:42;;;;;;;4.90;3.87;;;12.50;99.90;;;;;;5088981;28;20201;-51
2021/10/14 06:11:10;;;;;;;8.03;4.43;;;12.50;99.90;;;;;;5095126;27;20197;-49
2021/10/14 06:13:37;;;;;;;5.13;4.63;;;12.50;99.90;;;;;;5096095;28;20710;-52
2021/10/14 06:16:05;;;;;;;5.27;4.40;;;12.50;99.90;;;;;;5097717;28;20222;-50
2021/10/14 06:18:31;;;;;;;6.10;4.70;;;12.50;99.90;;;;;;5100992;28;20198;-47
2021/10/14 06:20:58;;;;;;;6.93;5.07;;;12.50;99.90;;;;;;5088459;28;20201;-49
2021/10/14 06:23:25;;;;;;;7.03;5.03;;;12.50;99.90;;;;;;5096659;28;20217;-47
2021/10/14 06:25:51;;;;;;;10.37;5.33;;;12.50;99.90;;;;;;5091799;27;20205;-51
2021/10/14 06:28:19;;;;;;;9.53;6.10;;;12.50;99.90;;;;;;5097649;28;20833;-53
2021/10/14 06:30:46;;;;;;;9.67;6.23;;;12.60;99.90;;;;;;5092290;27;20208;-51
2021/10/14 06:33:13;;;;;;;7.57;6.00;;;12.50;99.90;;;;;;5087349;28;22772;-49
2021/10/14 06:35:39;;;;;;;9.90;6.70;;;12.60;99.90;;;;;;5094133;28;20217;-55
2021/10/14 06:38:06;;;;;;;11.17;6.17;;;12.60;99.90;;;;;;5096967;28;20193;-51
2021/10/14 06:40:33;;;;;;;11.73;7.00;;;12.60;99.90;;;;;;5083376;28;20225;-52
2021/10/14 06:43:00;;;;;;;9.40;6.13;;;12.60;99.90;;;;;;5086854;27;20213;-47
2021/10/14 06:45:28;;;;;;;10.63;7.43;;;12.60;99.90;;;;;;5098587;27;20209;-48
2021/10/14 06:47:55;;;;;;;12.53;6.97;;;12.60;99.90;;;;;;5093746;27;20197;-46
2021/10/14 06:50:22;;;;;;;14.17;6.30;;;12.60;99.90;;;;;;5103936;28;20197;-45
2021/10/14 06:52:48;;;;;;;15.70;7.10;;;12.60;99.90;;;;;;5097018;28;20201;-54
2021/10/14 06:55:15;;;;;;;9.13;6.67;;;12.60;99.90;;;;;;5103643;27;20225;-50
2021/10/14 06:57:42;;;;;;;10.10;6.13;;;12.60;99.90;;;;;;5079843;27;20209;-51
2021/10/14 07:00:10;;;;;;;11.83;5.67;;;12.60;99.90;;;;;;5101210;28;20196;-52
2021/10/14 07:02:38;;;;;;;11.53;4.67;;;12.60;99.90;;;;;;5087686;28;20206;-49
2021/10/14 07:05:05;;;;;;;8.27;5.83;;;12.60;99.90;;;;;;5104614;28;20216;-48
2021/10/14 07:07:32;;;;;;;10.83;4.77;;;12.60;99.90;;;;;;5105113;28;20201;-54
2021/10/14 07:09:59;;;;;;;8.00;4.53;;;12.60;99.90;;;;;;5087749;28;20217;-48
2021/10/14 07:12:29;;;;;;;8.67;4.50;;;12.60;99.90;;;;;;5084015;27;20197;-51
2021/10/14 07:14:56;;;;;;;9.83;5.10;;;12.70;99.90;;;;;;5099448;28;20209;-52
2021/10/14 07:17:23;;;;;;;12.23;5.33;;;12.60;99.90;;;;;;5085912;27;20209;-49
2021/10/14 07:19:51;;;;;;;8.57;4.70;;;12.70;99.90;;;;;;5099444;28;20201;-51
2021/10/14 07:22:17;;;;;;;10.53;4.60;;;12.60;99.90;;;;;;5089159;28;20189;-48
2021/10/14 07:24:44;;;;;;;7.33;3.97;;;12.70;99.90;;;;;;5100396;27;20229;-51
2021/10/14 07:27:10;;;;;;;6.73;4.17;;;12.70;99.90;;;;;;5088040;27;20202;-53
2021/10/14 07:29:37;;;;;;;8.60;4.60;;;12.70;99.90;;;;;;5108327;27;20285;-46
2021/10/14 07:32:06;;;;;;;6.60;3.93;;;12.70;99.90;;;;;;5094512;27;20197;-50
2021/10/14 07:34:33;;;;;;;11.63;4.73;;;12.70;99.90;;;;;;5101172;27;20221;-49
2021/10/14 07:37:01;;;;;;;9.67;4.10;;;12.70;99.90;;;;;;5090984;28;20209;-50
2021/10/14 07:39:28;;;;;;;12.63;4.37;;;12.70;99.90;;;;;;5091389;28;20210;-52
2021/10/14 07:41:54;;;;;;;10.07;4.57;;;12.70;99.90;;;;;;5094326;28;20543;-51
2021/10/14 07:44:21;;;;;;;10.70;4.27;;;12.70;99.90;;;;;;5084053;27;20224;-48
2021/10/14 07:46:48;;;;;;;6.63;3.87;;;12.70;99.90;;;;;;5100991;28;20201;-51
2021/10/14 07:49:16;;;;;;;8.90;4.23;;;12.70;99.90;;;;;;5098688;28;20939;-50
2021/10/14 07:51:43;;;;;;;7.33;3.93;;;12.70;99.90;;;;;;5102495;28;20822;-52
2021/10/14 07:54:10;;;;;;;11.00;4.13;;;12.70;99.90;;;;;;5091051;28;20225;-45
2021/10/14 07:56:37;;;;;;;6.93;3.97;;;12.70;99.90;;;;;;5093554;28;20219;-51
2021/10/14 07:59:05;;;;;;;7.13;3.93;;;12.70;99.90;;;;;;5082278;27;20193;-52
2021/10/14 08:01:31;;;;;;;8.27;3.80;;;12.70;99.90;;;;;;5104295;28;20201;-50
2021/10/14 08:03:58;;;;;;;7.33;4.03;;;12.70;99.90;;;;;;5090605;27;20210;-52
2021/10/14 08:06:25;;;;;;;7.03;4.10;;;12.80;99.90;;;;;;5104927;27;20783;-46
2021/10/14 08:08:51;;;;;;;10.17;4.20;;;12.80;99.90;;;;;;5091800;28;20208;-50
2021/10/14 08:11:19;;;;;;;9.73;3.63;;;12.80;99.90;;;;;;5098342;28;20201;-45
2021/10/14 08:13:46;;;;;;;8.00;4.20;;;12.70;99.90;;;;;;5090677;28;20694;-53
2021/10/14 08:16:13;;;;;;;6.87;4.63;;;12.70;99.90;;;;;;5091457;27;20213;-46
2021/10/14 08:18:39;;;;;;;9.60;5.13;;;12.80;99.90;;;;;;5103532;28;20840;-47
2021/10/14 08:21:06;;;;;;;10.03;4.70;;;12.70;99.90;;;;;;5083537;28;20818;-49
2021/10/14 08:23:32;;;;;;;10.67;5.27;;;12.70;99.90;;;;;;5102922;28;20229;-47
2021/10/14 08:25:59;;;;;;;7.70;5.97;;;12.70;99.90;;;;;;5093700;27;20200;-52
2021/10/14 08:28:27;;;;;;;11.50;5.10;;;12.70;99.90;;;;;;5103242;28;20197;-49
2021/10/14 08:30:55;;;;;;;10.70;5.10;;;12.70;99.90;;;;;;5088429;27;20583;-49
2021/10/14 08:33:22;;;;;;;14.23;5.53;;;12.70;99.90;;;;;;5098114;28;20231;-51
2021/10/14 08:35:49;;;;;;;11.27;5.40;;;12.70;99.90;;;;;;5097032;28;20201;-48
2021/10/14 08:38:15;;;;;;;7.47;5.00;;;12.80;99.90;;;;;;5095599;27;20810;-48
2021/10/14 08:40:42;;;;;;;12.57;5.03;;;12.80;99.90;;;;;;5101394;28;20208;-48
2021/10/14 08:43:12;;;;;;;14.37;5.20;;;12.90;99.90;;;;;;5094882;28;20836;-48
2021/10/14 08:45:41;;;;;;;7.23;5.20;;;12.90;99.90;;;;;;5086848;27;20208;-49
2021/10/14 08:48:08;;;;;;;10.77;4.80;;;13.00;99.90;;;;;;5097403;28;20374;-47
2021/10/14 08:50:37;;;;;;;10.97;4.23;;;13.10;99.90;;;;;;5095715;27;20232;-54
2021/10/14 08:53:04;;;;;;;9.20;4.97;;;13.10;99.90;;;;;;5093978;28;20201;-46
2021/10/14 08:55:31;;;;;;;8.53;4.73;;;13.20;99.90;;;;;;5100740;28;20209;-50
2021/10/14 08:57:58;;;;;;;5.97;4.60;;;13.20;99.90;;;;;;5094233;28;21875;-51
2021/10/14 09:00:24;;;;;;;6.67;3.67;;;13.30;99.90;;;;;;5098325;28;20197;-49
2021/10/14 09:02:52;;;;;;;8.50;4.80;;;13.30;99.90;;;;;;5081738;27;20204;-49
2021/10/14 09:05:19;;;;;;;6.67;4.10;;;13.20;99.90;;;;;;5086306;28;20210;-48
2021/10/14 09:07:49;;;;;;;8.23;4.57;;;13.30;99.90;;;;;;5080108;27;20189;-47
2021/10/14 09:10:17;;;;;;;8.43;4.50;;;13.20;99.90;;;;;;5096640;28;20201;-48
2021/10/14 09:12:45;;;;;;;9.63;5.17;;;13.20;99.90;;;;;;5086674;27;20197;-50
2021/10/14 09:15:13;;;;;;;9.13;4.87;;;13.20;99.90;;;;;;5093338;28;20294;-49
2021/10/14 09:17:49;;;;;;;10.93;5.03;;;13.20;99.90;;;;;;5076198;27;20711;-52
2021/10/14 09:20:30;;;;;;;10.87;5.63;;;13.20;99.90;;;;;;5099828;28;20545;-52
2021/10/14 09:22:58;;;;;;;7.13;5.60;;;13.20;99.90;;;;;;5097231;28;20204;-49
2021/10/14 09:25:30;;;;;;;6.53;5.10;;;13.20;99.90;;;;;;5091432;28;20224;-54
2021/10/14 09:28:09;;;;;;;6.20;5.10;;;13.20;99.90;;;;;;5098680;28;20198;-50
2021/10/14 09:30:44;;;;;;;9.70;5.57;;;13.20;99.90;;;;;;5090108;28;20205;-51
2021/10/14 09:33:36;;;;;;;11.67;5.60;;;13.20;99.90;;;;;;5089827;28;20282;-48
2021/10/14 09:36:14;;;;;;;5.20;4.73;;;13.20;99.90;;;;;;5098585;28;20568;-46
2021/10/14 09:38:42;;;;;;;6.70;4.67;;;13.20;99.90;;;;;;5089617;28;20189;-44
2021/10/14 09:41:10;;;;;;;7.63;4.17;;;13.20;99.90;;;;;;5100531;28;20271;-50
2021/10/14 09:43:38;;;;;;;6.57;4.67;;;13.20;99.90;;;;;;5089215;28;20225;-53
2021/10/14 09:46:05;;;;;;;6.03;4.10;;;13.20;99.90;;;;;;5092661;28;20201;-46
2021/10/14 09:48:35;;;;;;;5.57;4.07;;;13.30;99.90;;;;;;5078242;28;20204;-55
2021/10/14 09:51:02;;;;;;;6.00;4.00;;;13.30;99.90;;;;;;5103655;28;20292;-50
2021/10/14 09:53:30;;;;;;;4.20;3.47;;;13.30;99.90;;;;;;5092343;28;20705;-48
2021/10/14 09:55:57;;;;;;;6.10;3.37;;;13.30;99.90;;;;;;5097298;28;20200;-47
2021/10/14 09:58:24;;;;;;;6.03;3.10;;;13.40;99.90;;;;;;5094471;28;20667;-52
2021/10/14 10:00:52;;;;;;;3.93;3.53;;;13.30;99.90;;;;;;5097905;28;20209;-54
2021/10/14 10:03:20;;;;;;;4.03;3.47;;;13.20;99.90;;;;;;5095613;27;20232;-50
2021/10/14 10:05:48;;;;;;;4.90;3.80;;;13.20;99.90;;;;;;5093962;27;20220;-50
2021/10/14 10:08:24;;;;;;;5.50;3.27;;;13.20;99.90;;;;;;5101680;27;20238;-48
2021/10/14 10:10:53;;;;;;;6.40;3.67;;;13.20;99.90;;;;;;5095153;27;20200;-47
2021/10/14 10:13:20;;;;;;;8.17;3.30;;;13.30;99.90;;;;;;5093370;28;20209;-48
2021/10/14 10:15:49;;;;;;;3.17;2.87;;;13.30;99.90;;;;;;5094873;28;20197;-46
2021/10/14 10:18:44;;;;;;;3.30;2.90;;;13.40;99.90;;;;;;5098682;28;20575;-47
2021/10/14 10:21:43;;;;;;;5.00;2.60;;;13.50;99.90;;;;;;5095103;28;20197;-45
2021/10/14 10:24:31;;;;;;;4.33;2.63;;;13.60;99.90;;;;;;5094374;28;20224;-49
2021/10/14 10:27:10;;;;;;;4.47;3.20;;;13.70;99.90;;;;;;5097185;28;20254;-44
2021/10/14 10:29:44;;;;;;;2.13;1.87;;;13.80;99.90;;;;;;5097979;28;20246;-46
2021/10/14 10:32:22;;;;;;;2.63;1.63;;;13.80;99.90;;;;;;5101526;28;20203;-52
2021/10/14 10:35:03;;;;;;;3.80;1.97;;;13.70;99.90;;;;;;5087754;27;20225;-51
2021/10/14 10:37:34;;;;;;;2.17;1.60;;;13.80;99.90;;;;;;5101835;28;20256;-53
2021/10/14 10:40:02;;;;;;;2.20;2.00;;;13.70;99.90;;;;;;5101037;27;20202;-46
2021/10/14 10:42:33;;;;;;;2.73;1.70;;;13.70;99.90;;;;;;5100606;28;20561;-52
2021/10/14 10:45:10;;;;;;;2.03;1.50;;;13.60;99.90;;;;;;5100585;28;20233;-49
2021/10/14 10:47:49;;;;;;;2.80;2.00;;;13.60;99.90;;;;;;5094904;27;20197;-50
2021/10/14 10:50:19;;;;;;;2.10;2.00;;;13.60;99.90;;;;;;5086625;27;20215;-52
2021/10/14 10:52:47;;;;;;;2.30;1.90;;;13.60;99.90;;;;;;5102954;28;20189;-49
2021/10/14 10:55:34;;;;;;;3.00;1.87;;;13.60;99.90;;;;;;5096656;28;20221;-48
2021/10/14 10:58:04;;;;;;;1.83;1.70;;;13.60;99.90;;;;;;5100868;28;20204;-49
2021/10/14 11:00:31;;;;;;;4.57;2.30;;;13.60;99.90;;;;;;5088556;28;20890;-51
2021/10/14 11:03:13;;;;;;;2.23;2.03;;;13.50;99.90;;;;;;5102329;28;20580;-49
2021/10/14 11:05:45;;;;;;;2.93;2.70;;;13.50;99.90;;;;;;5092124;27;20299;-48
2021/10/14 11:08:16;;;;;;;2.80;2.10;;;13.60;99.90;;;;;;5094715;28;20197;-50
2021/10/14 11:10:44;;;;;;;2.17;1.97;;;13.60;99.90;;;;;;5098166;28;21345;-50
2021/10/14 11:13:12;;;;;;;3.27;1.87;;;13.70;99.90;;;;;;5084500;27;20202;-50
2021/10/14 11:15:39;;;;;;;1.67;1.57;;;13.80;99.90;;;;;;5092804;28;20189;-49
2021/10/14 11:18:08;;;;;;;1.70;1.60;;;13.80;99.90;;;;;;5098902;28;20586;-48
2021/10/14 11:20:36;;;;;;;1.63;1.53;;;13.90;99.90;;;;;;5085523;27;22146;-48
2021/10/14 11:23:07;;;;;;;1.80;1.50;;;13.90;99.90;;;;;;5105509;28;20200;-45
2021/10/14 11:25:35;;;;;;;4.60;1.50;;;13.90;99.90;;;;;;5096953;28;20217;-45
2021/10/14 11:28:05;;;;;;;2.17;1.67;;;14.00;99.90;;;;;;5098288;28;20301;-45
2021/10/14 11:30:44;;;;;;;2.80;1.80;;;14.00;99.90;;;;;;5094106;27;20271;-51
2021/10/14 11:33:12;;;;;;;3.43;1.87;;;14.00;99.90;;;;;;5097128;28;20252;-48
2021/10/14 11:35:40;;;;;;;1.93;1.50;;;14.00;99.90;;;;;;5086024;27;20216;-50
2021/10/14 11:38:11;;;;;;;5.37;2.00;;;14.00;99.90;;;;;;5108876;27;20221;-48
2021/10/14 11:40:40;;;;;;;2.83;1.67;;;14.10;99.90;;;;;;5099430;27;20930;-47
2021/10/14 11:43:08;;;;;;;4.13;2.03;;;14.10;99.90;;;;;;5100839;27;20280;-52
2021/10/14 11:45:41;;;;;;;2.50;1.80;;;14.20;99.90;;;;;;5093309;28;20213;-52
2021/10/14 11:48:25;;;;;;;3.33;1.70;;;14.20;99.90;;;;;;5101374;27;20197;-50
2021/10/14 11:51:05;;;;;;;2.30;1.60;;;14.20;99.90;;;;;;5089700;27;20236;-47
2021/10/14 11:53:32;;;;;;;2.90;1.67;;;14.30;99.90;;;;;;5086980;27;20299;-47
2021/10/14 11:56:00;;;;;;;2.50;1.87;;;14.40;99.90;;;;;;5101472;28;20205;-43
2021/10/14 11:58:26;;;;;;;2.17;1.93;;;14.40;99.90;;;;;;5099173;28;20189;-50
2021/10/14 12:00:58;;;;;;;3.93;2.40;;;;;;;;;;5105542;27;20658;-48
2021/10/14 12:03:25;;;;;;;4.27;1.70;;;14.30;99.90;;;;;;5101084;28;20213;-44
2021/10/14 12:05:55;;;;;;;3.87;2.00;;;;;;;;;;5100361;28;20213;-47
2021/10/14 12:08:22;;;;;;;4.67;2.53;;;14.00;99.90;;;;;;5094030;27;20205;-49
2021/10/14 12:10:54;;;;;;;3.97;2.23;;;14.50;99.90;;;;;;5100464;28;20200;-44
2021/10/14 12:13:24;;;;;;;2.60;2.37;;;14.50;99.90;;;;;;5093167;28;20253;-50
2021/10/14 12:15:51;;;;;;;3.30;2.30;;;14.40;99.90;;;;;;5099339;28;20205;-47
2021/10/14 12:18:31;;;;;;;4.73;2.77;;;14.40;99.90;;;;;;5101041;27;20200;-47
2021/10/14 12:20:58;;;;;;;2.67;2.20;;;14.40;99.90;;;;;;5096568;28;20516;-48
2021/10/14 12:23:29;;;;;;;4.23;2.50;;;14.40;99.90;;;;;;5078490;27;20304;-49
2021/10/14 12:26:10;;;;;;;3.30;2.43;;;14.30;99.90;;;;;;5099947;28;20245;-48
2021/10/14 12:28:41;;;;;;;3.63;2.90;;;14.30;99.90;;;;;;5098647;28;20273;-48
2021/10/14 12:31:12;;;;;;;4.50;2.87;;;14.20;99.90;;;;;;5091193;28;20201;-48
2021/10/14 12:33:41;;;;;;;5.30;3.27;;;14.20;99.90;;;;;;5099765;28;20221;-45
2021/10/14 12:36:08;;;;;;;3.43;2.97;;;14.10;99.90;;;;;;5094986;28;20192;-47
2021/10/14 12:38:38;;;;;;;5.50;2.87;;;14.10;99.90;;;;;;5075336;27;20197;-47
2021/10/14 12:41:07;;;;;;;3.70;3.40;;;14.10;99.90;;;;;;5098289;28;20209;-50
2021/10/14 12:43:40;;;;;;;4.57;2.93;;;14.10;99.90;;;;;;5091059;28;20962;-46
2021/10/14 12:46:35;;;;;;;4.33;3.33;;;14.10;99.90;;;;;;5099305;28;20258;-47
2021/10/14 12:49:35;;;;;;;5.50;3.50;;;14.00;99.90;;;;;;5087157;28;20209;-51